Time;durP1;ratioP1;P1;durP2;ratioP2;P2;SDS_P1;SDS_P2;PMS_P1;PMS_P2;Temp;Humidity;BMP_temperature;BMP_pressure;BME280_temperature;BME280_humidity;BME280_pressure;Samples;Min_cycle;Max_cycle;Signal;HPM_P1;HPM_P2
2024/03/17 00:01:14;;;;;;;4.43;1.85;;;;;;;9.98;100.00;100198.72;5041687;28;20072;-65
2024/03/17 00:03:41;;;;;;;2.13;1.83;;;;;;;9.93;100.00;100196.97;5047088;28;20746;-65
2024/03/17 00:06:09;;;;;;;3.42;2.08;;;;;;;9.92;100.00;100194.59;5045774;28;20045;-65
2024/03/17 00:08:35;;;;;;;3.90;2.20;;;;;;;9.87;100.00;100195.66;5031368;28;20053;-63
2024/03/17 00:11:01;;;;;;;2.60;2.22;;;;;;;9.83;100.00;100194.75;5055088;28;20705;-65
2024/03/17 00:13:27;;;;;;;3.00;2.13;;;;;;;9.78;100.00;100195.00;5047130;28;20406;-64
2024/03/17 00:15:54;;;;;;;1.80;1.50;;;;;;;9.74;100.00;100194.13;5047621;28;20529;-65
2024/03/17 00:18:20;;;;;;;2.60;1.83;;;;;;;9.72;100.00;100199.97;5048642;28;20867;-65
2024/03/17 00:20:46;;;;;;;3.30;1.80;;;;;;;9.68;100.00;100188.03;5031138;28;20506;-65
2024/03/17 00:23:13;;;;;;;6.65;2.33;;;;;;;9.68;100.00;100187.22;5048864;28;20045;-64
2024/03/17 00:25:39;;;;;;;2.80;1.65;;;;;;;9.67;100.00;100188.38;5046952;28;20062;-65
2024/03/17 00:28:06;;;;;;;4.53;1.80;;;;;;;9.67;100.00;100178.13;5032050;28;20550;-64
2024/03/17 00:30:33;;;;;;;3.05;1.60;;;;;;;9.67;100.00;100180.06;5047500;28;20076;-65
2024/03/17 00:32:59;;;;;;;8.50;1.75;;;;;;;9.65;100.00;100176.88;5024864;28;20049;-64
2024/03/17 00:35:26;;;;;;;5.95;1.60;;;;;;;9.64;100.00;100178.81;5046852;28;20542;-65
2024/03/17 00:37:53;;;;;;;1.88;1.23;;;;;;;9.62;100.00;100174.81;5047117;28;20414;-65
2024/03/17 00:40:20;;;;;;;7.07;1.45;;;;;;;9.61;100.00;100167.69;5046978;28;20064;-64
2024/03/17 00:42:49;;;;;;;4.47;1.85;;;;;;;9.58;100.00;100168.38;5047857;28;20060;-65
2024/03/17 00:45:15;;;;;;;5.18;2.03;;;;;;;9.56;100.00;100159.63;5030762;28;20045;-65
2024/03/17 00:47:43;;;;;;;7.32;3.38;;;;;;;9.52;100.00;100158.75;5047235;28;20653;-65
2024/03/17 00:50:11;;;;;;;4.68;2.70;;;;;;;9.49;100.00;100165.78;5030630;28;20048;-65
2024/03/17 00:52:37;;;;;;;8.20;2.95;;;;;;;9.45;100.00;100173.13;5034883;28;20045;-64
2024/03/17 00:55:04;;;;;;;7.95;2.90;;;;;;;9.44;100.00;100167.97;5046772;28;20044;-64
2024/03/17 00:57:30;;;;;;;9.90;3.10;;;;;;;9.40;100.00;100167.88;5047934;28;20053;-64
2024/03/17 00:59:56;;;;;;;4.40;2.72;;;;;;;9.38;100.00;100174.91;5047335;28;20060;-65
2024/03/17 01:02:23;;;;;;;11.15;2.75;;;;;;;9.35;100.00;100164.53;5032278;28;20056;-65
2024/03/17 01:04:49;;;;;;;9.10;3.30;;;;;;;9.33;100.00;100166.88;5037769;28;20403;-65
2024/03/17 01:07:15;;;;;;;8.07;2.53;;;;;;;9.29;100.00;100166.78;5011851;28;20049;-64
2024/03/17 01:09:41;;;;;;;8.68;2.58;;;;;;;9.30;100.00;100170.31;5034385;28;20041;-64
2024/03/17 01:12:08;;;;;;;5.40;2.28;;;;;;;9.26;100.00;100166.66;5037046;28;20045;-64
2024/03/17 01:14:35;;;;;;;12.32;2.58;;;;;;;9.23;100.00;100157.13;5023621;28;20056;-64
2024/03/17 01:17:04;;;;;;;15.18;2.70;;;;;;;9.23;100.00;100162.66;5019803;28;20526;-65
2024/03/17 01:19:31;;;;;;;6.25;2.17;;;;;;;9.24;100.00;100158.72;5030430;28;20053;-65
2024/03/17 01:22:00;;;;;;;7.22;2.00;;;;;;;9.26;100.00;100152.84;5032886;28;20411;-64
2024/03/17 01:24:31;;;;;;;9.93;3.08;;;;;;;9.26;100.00;100158.38;5015477;28;20505;-64
2024/03/17 01:26:59;;;;;;;10.45;2.28;;;;;;;9.27;100.00;100144.22;5040465;28;20414;-64
2024/03/17 01:29:26;;;;;;;13.48;2.65;;;;;;;9.29;100.00;100149.41;5042466;28;20407;-64
2024/03/17 01:31:52;;;;;;;9.07;2.05;;;;;;;9.28;100.00;100150.53;5031845;28;20052;-64
2024/03/17 01:34:19;;;;;;;7.97;2.25;;;;;;;9.28;100.00;100150.53;5030237;28;20745;-64
2024/03/17 01:36:45;;;;;;;7.38;2.53;;;;;;;9.28;100.00;100145.03;5038323;28;20372;-64
2024/03/17 01:39:12;;;;;;;8.80;2.22;;;;;;;9.26;100.00;100144.56;5030988;28;20041;-64
2024/03/17 01:41:39;;;;;;;9.00;2.88;;;;;;;9.26;100.00;100144.56;5030603;28;20045;-64
2024/03/17 01:44:21;;;;;;;4.82;1.90;;;;;;;9.28;100.00;100133.97;5022524;28;20045;-64
2024/03/17 01:46:47;;;;;;;11.30;3.05;;;;;;;9.28;100.00;100132.00;5015585;28;20529;-64
2024/03/17 01:49:14;;;;;;;11.10;3.30;;;;;;;9.31;100.00;100136.03;5030614;28;20408;-64
2024/03/17 01:51:40;;;;;;;8.40;2.92;;;;;;;9.33;100.00;100129.00;5035605;28;20049;-64
2024/03/17 01:54:08;;;;;;;8.35;2.30;;;;;;;9.35;100.00;100125.88;5036130;28;20049;-64
2024/03/17 01:56:34;;;;;;;9.40;2.28;;;;;;;9.36;100.00;100121.97;5030495;28;20438;-63
2024/03/17 01:59:01;;;;;;;11.02;2.70;;;;;;;9.37;100.00;100120.81;5034475;28;20575;-63
2024/03/17 02:01:27;;;;;;;6.25;2.40;;;;;;;9.37;100.00;100118.06;5037233;28;20776;-63
2024/03/17 02:03:54;;;;;;;8.27;2.38;;;;;;;9.37;100.00;100120.81;5016813;28;20056;-63
2024/03/17 02:06:20;;;;;;;6.07;2.20;;;;;;;9.38;100.00;100125.19;5037499;28;20052;-63
2024/03/17 02:08:48;;;;;;;7.25;2.38;;;;;;;9.37;100.00;100118.84;5024296;28;20540;-63
2024/03/17 02:11:32;;;;;;;9.32;3.08;;;;;;;9.38;100.00;100114.13;5035883;28;20053;-63
2024/03/17 02:14:00;;;;;;;12.05;3.67;;;;;;;9.38;100.00;100114.13;5025151;28;20053;-63
2024/03/17 02:16:26;;;;;;;7.75;3.15;;;;;;;9.40;100.00;100111.84;5030357;28;20521;-63
2024/03/17 02:18:57;;;;;;;9.02;2.63;;;;;;;9.41;100.00;100099.59;5029919;28;20053;-63
2024/03/17 02:21:27;;;;;;;11.18;3.20;;;;;;;9.44;100.00;100109.97;5032353;28;20041;-63
2024/03/17 02:23:56;;;;;;;10.95;2.78;;;;;;;9.45;100.00;100108.81;5033034;28;20034;-63
2024/03/17 02:26:26;;;;;;;15.82;2.65;;;;;;;9.46;100.00;100099.34;5035377;28;20110;-63
2024/03/17 02:28:52;;;;;;;9.50;2.53;;;;;;;9.46;100.00;100107.63;5033559;28;20078;-63
2024/03/17 02:31:19;;;;;;;13.65;3.28;;;;;;;9.48;100.00;100097.03;5010582;28;20045;-63
2024/03/17 02:33:46;;;;;;;6.57;2.50;;;;;;;9.46;100.00;100091.06;5020136;28;20060;-63
2024/03/17 02:36:12;;;;;;;8.68;2.20;;;;;;;9.43;100.00;100097.28;5029976;28;20048;-63
2024/03/17 02:41:25;;;;;;;6.53;2.40;;;;;;;9.35;100.00;100087.19;5019631;28;20053;-63
2024/03/17 02:43:51;;;;;;;10.63;2.92;;;;;;;9.31;100.00;100086.31;5024689;28;20059;-63
2024/03/17 02:46:18;;;;;;;10.15;2.70;;;;;;;9.25;100.00;100096.81;5031351;28;20064;-63
2024/03/17 02:48:47;;;;;;;11.40;4.25;;;;;;;9.21;100.00;100090.41;5043811;28;20041;-63
2024/03/17 02:51:15;;;;;;;12.20;3.72;;;;;;;9.17;100.00;100092.25;5012862;28;20045;-63
2024/03/17 02:53:42;;;;;;;13.68;4.10;;;;;;;9.13;100.00;100097.66;5031060;28;20056;-63
2024/03/17 02:56:09;;;;;;;8.05;3.72;;;;;;;9.08;100.00;100089.63;5032529;28;20049;-63
2024/03/17 02:58:36;;;;;;;11.45;3.53;;;;;;;9.05;100.00;100087.56;5031524;28;20049;-63
2024/03/17 03:01:04;;;;;;;15.95;3.90;;;;;;;9.00;100.00;100079.53;5135101;22;20064;-63
2024/03/17 03:03:33;;;;;;;6.93;2.78;;;;;;;8.95;100.00;100079.78;5021900;28;20490;-63
2024/03/17 03:06:06;;;;;;;15.02;5.00;;;;;;;8.91;100.00;100076.13;5018479;28;20067;-63
2024/03/17 03:08:33;;;;;;;7.70;3.67;;;;;;;8.89;100.00;100074.88;4999395;28;20049;-63
2024/03/17 03:11:00;;;;;;;16.88;4.53;;;;;;;8.87;100.00;100071.66;5009794;28;20049;-63
2024/03/17 03:13:26;;;;;;;18.42;5.35;;;;;;;8.86;100.00;100076.38;5020275;28;20057;-63
2024/03/17 03:15:53;;;;;;;14.55;5.47;;;;;;;8.86;100.00;100078.31;5012148;28;20045;-63
2024/03/17 03:18:19;;;;;;;13.15;5.20;;;;;;;8.85;100.00;100065.66;5012439;28;20038;-63
2024/03/17 03:20:52;;;;;;;14.20;4.88;;;;;;;8.82;100.00;100075.44;5015008;28;20056;-63
2024/03/17 03:23:19;;;;;;;17.73;5.75;;;;;;;8.81;100.00;100078.56;5009476;28;20037;-63
2024/03/17 03:25:50;;;;;;;14.27;4.88;;;;;;;8.79;100.00;100067.09;5022023;28;20067;-63
2024/03/17 03:28:16;;;;;;;14.55;4.90;;;;;;;8.74;100.00;100073.63;5003173;28;20071;-63
2024/03/17 03:30:43;;;;;;;20.02;6.18;;;;;;;8.72;100.00;100066.84;5023226;28;20045;-63
2024/03/17 03:33:09;;;;;;;13.80;6.32;;;;;;;8.70;100.00;100067.22;4998643;28;20041;-63
2024/03/17 03:35:35;;;;;;;16.05;6.85;;;;;;;8.69;100.00;100071.13;5021997;28;20037;-63
2024/03/17 03:38:02;;;;;;;16.42;6.38;;;;;;;8.69;100.00;100073.88;5002569;28;20045;-63
2024/03/17 03:40:29;;;;;;;14.95;6.85;;;;;;;8.68;100.00;100072.28;5015420;28;20060;-63
2024/03/17 03:42:56;;;;;;;19.85;6.55;;;;;;;8.68;100.00;100074.25;5011742;28;20446;-63
2024/03/17 03:45:22;;;;;;;15.40;7.93;;;;;;;8.66;100.00;100077.31;5012426;28;20041;-63
2024/03/17 03:47:51;;;;;;;19.70;6.63;;;;;;;8.64;100.00;100071.38;5023936;28;20049;-63
2024/03/17 03:50:21;;;;;;;22.80;8.02;;;;;;;8.63;100.00;100061.47;5026793;28;20045;-63
2024/03/17 03:52:47;;;;;;;12.32;6.70;;;;;;;8.62;100.00;100064.59;5014906;28;20055;-63
2024/03/17 03:55:16;;;;;;;17.80;6.70;;;;;;;8.62;100.00;100070.09;5024131;28;20041;-63
2024/03/17 03:57:45;;;;;;;17.65;6.88;;;;;;;8.58;100.00;100070.78;4996163;28;20049;-63
2024/03/17 04:00:13;;;;;;;18.52;7.82;;;;;;;8.57;100.00;100062.88;5026132;28;20037;-63
2024/03/17 04:02:39;;;;;;;14.60;6.65;;;;;;;8.57;100.00;100071.16;5041141;28;20067;-63
2024/03/17 04:05:06;;;;;;;20.80;8.07;;;;;;;8.57;100.00;100068.41;5030980;28;20033;-63
2024/03/17 04:07:32;;;;;;;18.92;7.45;;;;;;;8.57;100.00;100063.69;5029823;28;20044;-63
2024/03/17 04:09:59;;;;;;;26.85;8.95;;;;;;;8.60;100.00;100047.59;5037103;28;20044;-63
2024/03/17 04:12:25;;;;;;;15.32;8.35;;;;;;;8.62;100.00;100059.88;5023686;28;20045;-63
2024/03/17 04:14:53;;;;;;;24.52;8.68;;;;;;;8.64;100.00;100049.28;5030054;28;20045;-63
2024/03/17 04:17:23;;;;;;;22.80;9.48;;;;;;;8.65;100.00;100044.59;5042105;28;20071;-63
2024/03/17 04:19:50;;;;;;;16.02;8.52;;;;;;;8.68;100.00;100046.66;5024978;28;20048;-63
2024/03/17 04:22:18;;;;;;;21.48;9.70;;;;;;;8.70;100.00;100053.41;5033265;28;20041;-63
2024/03/17 04:24:45;;;;;;;23.90;9.05;;;;;;;8.72;100.00;100053.06;5031532;28;20041;-63
2024/03/17 04:27:11;;;;;;;21.85;9.65;;;;;;;8.72;100.00;100064.91;5038451;28;20056;-63
2024/03/17 04:29:38;;;;;;;28.58;10.70;;;;;;;8.74;100.00;100059.84;5039939;28;20526;-63
2024/03/17 04:32:04;;;;;;;20.08;9.40;;;;;;;8.75;100.00;100064.22;5035739;28;20446;-63
2024/03/17 04:34:31;;;;;;;25.42;10.85;;;;;;;8.78;100.00;100060.75;5016474;28;20368;-63
2024/03/17 04:36:58;;;;;;;21.73;10.35;;;;;;;8.82;100.00;100058.06;5035113;28;20053;-63
2024/03/17 04:39:25;;;;;;;19.73;10.45;;;;;;;8.83;100.00;100052.22;5043682;28;20064;-63
2024/03/17 04:41:51;;;;;;;25.83;11.63;;;;;;;8.85;100.00;100060.94;5040339;28;20053;-63
2024/03/17 04:44:20;;;;;;;27.08;10.65;;;;;;;8.88;100.00;100051.16;5040824;28;20052;-63
2024/03/17 04:46:46;;;;;;;26.85;10.57;;;;;;;8.89;100.00;100053.59;5026391;28;20056;-63
2024/03/17 04:49:12;;;;;;;23.63;11.05;;;;;;;8.90;100.00;100055.19;5014452;28;20053;-63
2024/03/17 04:51:38;;;;;;;31.75;11.93;;;;;;;8.90;100.00;100049.66;5037926;28;20423;-63
2024/03/17 04:54:07;;;;;;;23.77;9.43;;;;;;;8.91;100.00;100050.47;5026356;28;20050;-63
2024/03/17 04:56:33;;;;;;;19.52;9.68;;;;;;;8.94;100.00;100060.81;5039401;28;20049;-63
2024/03/17 04:58:59;;;;;;;22.45;10.23;;;;;;;8.92;100.00;100047.34;5036223;28;20049;-63
2024/03/17 05:01:25;;;;;;;26.83;10.18;;;;;;;8.93;100.00;100051.72;5027519;28;20067;-63
2024/03/17 05:03:52;;;;;;;28.50;9.77;;;;;;;8.95;100.00;100046.66;5036819;28;20049;-63
2024/03/17 05:06:18;;;;;;;22.38;10.20;;;;;;;8.94;100.00;100042.28;5036735;28;20049;-63
2024/03/17 05:08:45;;;;;;;27.60;9.18;;;;;;;8.95;100.00;100038.38;5037318;28;20053;-63
2024/03/17 05:11:11;;;;;;;22.27;8.50;;;;;;;8.94;100.00;100045.06;5032611;28;20041;-64
2024/03/17 05:13:41;;;;;;;18.10;6.72;;;;;;;8.95;100.00;100049.41;5032289;28;20046;-63
2024/03/17 05:16:07;;;;;;;16.75;8.20;;;;;;;8.96;100.00;100048.25;5007103;28;20048;-63
2024/03/17 05:18:34;;;;;;;19.92;7.60;;;;;;;8.97;100.00;100049.88;5040284;28;20052;-63
2024/03/17 05:21:01;;;;;;;19.60;7.57;;;;;;;9.00;100.00;100051.91;5025098;28;20410;-63
2024/03/17 05:23:29;;;;;;;15.77;8.45;;;;;;;9.02;100.00;100055.16;5041793;28;20046;-63
2024/03/17 05:25:56;;;;;;;17.70;6.43;;;;;;;9.02;100.00;100057.91;5033174;28;20060;-63
2024/03/17 05:28:24;;;;;;;16.50;7.13;;;;;;;9.04;100.00;100050.06;5025177;28;20045;-63
2024/03/17 05:30:50;;;;;;;13.50;6.57;;;;;;;9.05;100.00;100039.84;5035164;28;20054;-63
2024/03/17 05:33:18;;;;;;;14.55;6.07;;;;;;;9.05;100.00;100037.84;5024558;28;20422;-63
2024/03/17 05:35:52;;;;;;;12.60;5.65;;;;;;;9.06;100.00;100036.72;5040375;28;20056;-63
2024/03/17 05:38:20;;;;;;;16.25;5.88;;;;;;;9.09;100.00;100041.53;5044974;28;20033;-63
2024/03/17 05:40:57;;;;;;;14.93;6.05;;;;;;;9.08;100.00;100037.16;5012702;28;20053;-63
2024/03/17 05:43:24;;;;;;;13.90;6.20;;;;;;;9.09;100.00;100041.53;5035913;28;20682;-63
2024/03/17 05:45:56;;;;;;;18.10;6.28;;;;;;;9.11;100.00;100032.88;5037064;28;20053;-63
2024/03/17 05:48:24;;;;;;;15.32;5.35;;;;;;;9.11;100.00;100033.69;5035530;28;20376;-63
2024/03/17 05:50:53;;;;;;;12.52;3.78;;;;;;;9.14;100.00;100043.22;5033584;28;20059;-63
2024/03/17 05:53:23;;;;;;;14.18;4.00;;;;;;;9.16;100.00;100038.97;5036573;28;20846;-63
2024/03/17 05:55:50;;;;;;;11.25;4.13;;;;;;;9.21;100.00;100037.13;5016933;28;20042;-63
2024/03/17 05:58:16;;;;;;;11.30;4.45;;;;;;;9.22;100.00;100041.47;5022128;28;20053;-63
2024/03/17 06:00:43;;;;;;;13.63;3.85;;;;;;;9.24;100.00;100047.47;5042427;28;20044;-63
2024/03/17 06:03:10;;;;;;;8.10;4.10;;;;;;;9.24;100.00;100037.19;5010846;28;20072;-63
2024/03/17 06:05:40;;;;;;;10.02;3.55;;;;;;;9.26;100.00;100040.44;5019904;28;20392;-63
2024/03/17 06:08:08;;;;;;;6.53;3.35;;;;;;;9.26;100.00;100040.44;5022407;28;20049;-64
2024/03/17 06:10:36;;;;;;;11.10;3.60;;;;;;;9.27;100.00;100030.97;5029676;28;20054;-63
2024/03/17 06:13:03;;;;;;;7.15;3.00;;;;;;;9.29;100.00;100025.09;5010652;28;20053;-63
2024/03/17 06:15:30;;;;;;;9.70;4.07;;;;;;;9.30;100.00;100033.03;4997231;28;20060;-63
2024/03/17 06:18:01;;;;;;;9.10;3.00;;;;;;;9.30;100.00;100018.41;5024183;28;20511;-64
2024/03/17 06:20:28;;;;;;;11.98;3.83;;;;;;;9.30;100.00;100013.69;5019466;28;20992;-63
2024/03/17 06:22:55;;;;;;;6.55;3.33;;;;;;;9.29;100.00;100008.53;5002849;28;20049;-63
2024/03/17 06:25:24;;;;;;;9.23;3.78;;;;;;;9.31;100.00;100025.53;5013790;28;20037;-63
2024/03/17 06:27:54;;;;;;;10.18;4.35;;;;;;;9.29;100.00;100020.38;5025482;28;20066;-63
2024/03/17 06:30:21;;;;;;;13.60;5.32;;;;;;;9.29;100.00;100028.66;5025721;28;20450;-63
2024/03/17 06:32:47;;;;;;;9.68;3.90;;;;;;;9.29;100.00;100025.09;5012352;28;20045;-63
2024/03/17 06:35:15;;;;;;;11.75;4.45;;;;;;;9.28;100.00;100027.06;5012212;28;20042;-63
2024/03/17 06:37:42;;;;;;;15.02;4.50;;;;;;;9.29;100.00;100022.34;5009839;28;20503;-63
2024/03/17 06:40:14;;;;;;;10.02;4.45;;;;;;;9.28;100.00;100026.25;5020656;28;20038;-63
2024/03/17 06:42:41;;;;;;;11.13;4.82;;;;;;;9.28;100.00;100021.53;5011024;28;20418;-63
2024/03/17 06:45:08;;;;;;;12.30;4.88;;;;;;;9.29;100.00;100019.56;4996692;28;20807;-63
2024/03/17 06:47:37;;;;;;;13.68;6.05;;;;;;;9.30;100.00;100023.94;5014573;28;20053;-63
2024/03/17 06:50:05;;;;;;;12.10;5.85;;;;;;;9.31;100.00;100033.84;5024959;28;20059;-63
2024/03/17 06:52:31;;;;;;;13.40;6.60;;;;;;;9.32;100.00;100030.69;5021808;28;20053;-63
2024/03/17 06:54:58;;;;;;;10.77;5.50;;;;;;;9.33;100.00;100028.75;5003485;28;20048;-63
2024/03/17 06:57:25;;;;;;;11.63;5.57;;;;;;;9.33;100.00;100026.00;5010962;28;20057;-63
2024/03/17 06:59:51;;;;;;;14.07;5.47;;;;;;;9.33;100.00;100028.75;5014289;28;20041;-63
2024/03/17 07:02:19;;;;;;;10.05;4.57;;;;;;;9.35;100.00;100023.66;5017042;28;20054;-63
2024/03/17 07:04:47;;;;;;;9.48;4.35;;;;;;;9.35;100.00;100026.44;5037383;28;20041;-63
2024/03/17 07:07:14;;;;;;;9.02;4.13;;;;;;;9.38;100.00;100025.72;5040483;28;20048;-63
2024/03/17 07:09:41;;;;;;;9.50;4.43;;;;;;;9.39;100.00;100030.09;5037248;28;20045;-63
2024/03/17 07:12:08;;;;;;;15.10;5.40;;;;;;;9.42;100.00;100029.41;5027862;28;20738;-63
2024/03/17 07:14:36;;;;;;;11.60;4.53;;;;;;;9.44;100.00;100018.78;5039611;28;20068;-63
2024/03/17 07:17:02;;;;;;;11.48;5.30;;;;;;;9.45;100.00;100015.66;5012381;28;20415;-63
2024/03/17 07:19:30;;;;;;;8.57;4.65;;;;;;;9.48;100.00;100014.13;5023896;28;20060;-63
2024/03/17 07:21:57;;;;;;;14.85;4.40;;;;;;;9.48;100.00;100009.41;5034110;28;20584;-63
2024/03/17 07:24:23;;;;;;;11.10;4.32;;;;;;;9.51;100.00;100008.72;5036735;28;20044;-63
2024/03/17 07:26:50;;;;;;;13.65;4.32;;;;;;;9.54;100.00;100012.72;5035706;28;20053;-63
2024/03/17 07:29:19;;;;;;;16.45;7.05;;;;;;;9.57;100.00;100012.03;5023655;28;20044;-63
2024/03/17 07:31:46;;;;;;;37.72;18.75;;;;;;;9.61;100.00;100007.41;5042875;28;20060;-63
2024/03/17 07:34:12;;;;;;;36.15;16.00;;;;;;;9.65;100.00;100014.63;5024638;28;20046;-63
2024/03/17 07:36:39;;;;;;;24.20;12.65;;;;;;;9.68;100.00;100013.91;5026745;28;20041;-63
2024/03/17 07:39:07;;;;;;;39.95;19.10;;;;;;;9.73;100.00;100018.34;5026104;28;20437;-63
2024/03/17 07:41:33;;;;;;;46.50;17.17;;;;;;;9.77;100.00;100019.22;5029595;28;20041;-63
2024/03/17 07:43:59;;;;;;;27.50;12.30;;;;;;;9.81;100.00;100014.59;5023479;28;20045;-63
2024/03/17 07:46:25;;;;;;;47.25;19.77;;;;;;;9.86;100.00;100011.56;5028118;28;20527;-63
2024/03/17 07:48:52;;;;;;;27.67;14.35;;;;;;;9.91;100.00;100004.94;5038775;28;20568;-63
2024/03/17 07:51:18;;;;;;;20.90;11.45;;;;;;;9.97;100.00;100009.88;5032732;28;20040;-63
2024/03/17 07:53:47;;;;;;;14.13;8.07;;;;;;;10.03;100.00;100008.44;5026859;28;20048;-63
2024/03/17 07:56:14;;;;;;;11.30;4.47;;;;;;;10.10;100.00;99997.53;5042455;28;20045;-63
2024/03/17 07:58:43;;;;;;;4.80;2.72;;;;;;;10.17;100.00;100006.00;5027706;28;20407;-63
2024/03/17 08:01:13;;;;;;;6.93;2.50;;;;;;;10.21;100.00;99993.09;5011877;28;20057;-62
2024/03/17 08:03:45;;;;;;;6.90;2.10;;;;;;;10.25;100.00;100004.22;5023105;28;20049;-62
2024/03/17 08:06:12;;;;;;;9.18;3.58;;;;;;;10.29;100.00;100011.44;4997438;28;20068;-62
2024/03/17 08:08:38;;;;;;;8.05;2.58;;;;;;;10.31;100.00;100003.56;5010339;28;20495;-62
2024/03/17 08:11:07;;;;;;;10.38;3.08;;;;;;;10.33;100.00;100000.44;5027160;28;20056;-63
2024/03/17 08:13:34;;;;;;;8.88;3.20;;;;;;;10.35;100.00;100004.44;4991591;28;20045;-62
2024/03/17 08:16:03;;;;;;;12.77;4.88;;;;;;;10.37;100.00;100004.91;5015950;28;20049;-62
2024/03/17 08:18:30;;;;;;;17.67;5.05;;;;;;;10.40;100.00;100001.38;5009321;28;20042;-62
2024/03/17 08:20:56;;;;;;;8.27;2.45;;;;;;;10.40;100.00;100004.16;5005941;28;20057;-63
2024/03/17 08:23:23;;;;;;;8.70;3.08;;;;;;;10.44;100.00;100006.22;5017574;28;20053;-63
2024/03/17 08:26:00;;;;;;;9.18;3.20;;;;;;;10.46;100.00;100009.44;5031662;28;20040;-62
2024/03/17 08:28:27;;;;;;;13.80;5.25;;;;;;;10.48;100.00;100007.91;5031311;28;20060;-62
2024/03/17 08:30:55;;;;;;;12.25;4.22;;;;;;;10.52;100.00;100021.81;5014512;28;20049;-63
2024/03/17 08:33:23;;;;;;;9.85;3.50;;;;;;;10.54;100.00;100025.03;5025676;28;20384;-63
2024/03/17 08:35:56;;;;;;;14.57;4.03;;;;;;;10.54;100.00;100020.28;5020892;28;20426;-62
2024/03/17 08:38:23;;;;;;;7.57;3.55;;;;;;;10.55;100.00;100021.09;5020369;28;20044;-62
2024/03/17 08:40:51;;;;;;;11.90;3.25;;;;;;;10.55;100.00;100021.09;5016469;28;20060;-62
2024/03/17 08:43:18;;;;;;;11.65;3.72;;;;;;;10.55;100.00;100016.34;5030191;28;20052;-61
2024/03/17 08:45:45;;;;;;;8.38;2.88;;;;;;;10.60;100.00;100015.25;5021540;28;20063;-63
2024/03/17 08:48:11;;;;;;;9.30;2.33;;;;;;;10.64;100.00;100010.63;5020557;28;20041;-62
2024/03/17 08:50:38;;;;;;;7.07;2.75;;;;;;;10.64;100.00;100014.19;5015892;28;20042;-62
2024/03/17 08:53:04;;;;;;;11.60;3.50;;;;;;;10.62;100.00;100019.25;5019477;28;20056;-62
2024/03/17 08:55:30;;;;;;;7.00;3.47;;;;;;;10.58;100.00;100021.16;5022640;28;20045;-63
2024/03/17 08:57:58;;;;;;;12.50;5.55;;;;;;;10.60;100.00;100015.25;5013896;28;20038;-62
2024/03/17 09:00:25;;;;;;;8.25;4.57;;;;;;;10.58;100.00;100018.41;5016788;28;20049;-62
2024/03/17 09:02:51;;;;;;;10.48;4.85;;;;;;;10.58;100.00;100014.81;5034831;28;20045;-63
2024/03/17 09:05:17;;;;;;;17.75;6.72;;;;;;;10.62;100.00;100013.72;5036471;28;20048;-63
2024/03/17 09:07:44;;;;;;;9.88;3.70;;;;;;;10.68;100.00;100014.25;5038676;28;20053;-64
2024/03/17 09:10:13;;;;;;;6.43;2.58;;;;;;;10.73;100.00;100008.41;5036190;28;20052;-63
2024/03/17 09:12:40;;;;;;;8.93;3.47;;;;;;;10.91;100.00;100009.56;5036205;28;20068;-64
2024/03/17 09:15:08;;;;;;;8.57;3.03;;;;;;;11.21;100.00;100002.25;5027344;28;20547;-63
2024/03/17 09:17:35;;;;;;;6.18;2.20;;;;;;;11.41;100.00;100005.81;5035250;28;20041;-63
2024/03/17 09:20:01;;;;;;;13.55;3.45;;;;;;;11.48;100.00;100012.28;5008687;28;20071;-63
2024/03/17 09:22:27;;;;;;;5.70;2.28;;;;;;;11.58;100.00;100005.31;5028222;28;20045;-63
2024/03/17 09:24:54;;;;;;;5.90;1.80;;;;;;;11.63;100.00;100013.31;5047081;28;20044;-63
2024/03/17 09:27:22;;;;;;;5.32;1.58;;;;;;;11.64;100.00;100009.38;5022870;28;20045;-63
2024/03/17 09:29:48;;;;;;;5.75;1.30;;;;;;;11.69;100.00;100003.56;5039702;28;20053;-65
2024/03/17 09:32:17;;;;;;;3.00;1.35;;;;;;;11.74;100.00;100010.75;5040331;28;20578;-63
2024/03/17 09:34:48;;;;;;;6.72;1.95;;;;;;;11.74;100.00;100002.44;5040703;28;20045;-63
2024/03/17 09:37:16;;;;;;;13.85;4.15;;;;;;;11.73;100.00;99992.53;5027097;28;20063;-63
2024/03/17 09:39:43;;;;;;;8.00;2.80;;;;;;;11.77;100.00;100002.50;5027914;28;20579;-63
2024/03/17 09:42:18;;;;;;;9.07;3.83;;;;;;;12.13;100.00;99995.53;5029977;28;20053;-63
2024/03/17 09:44:47;;;;;;;4.50;2.10;;;;;;;13.63;100.00;100000.56;5025755;28;20056;-64
2024/03/17 09:47:22;;;;;;;4.07;1.75;;;;;;;14.67;100.00;100005.69;5040241;28;20060;-65
2024/03/17 09:49:50;;;;;;;7.32;2.80;;;;;;;15.33;100.00;100007.13;5031753;28;20140;-64
2024/03/17 09:52:24;;;;;;;9.50;2.35;;;;;;;16.01;100.00;100001.25;5025821;28;20050;-63
2024/03/17 09:55:09;;;;;;;7.32;2.50;;;;;;;16.22;100.00;100003.22;5038163;28;20426;-63
2024/03/17 09:57:36;;;;;;;3.20;1.52;;;;;;;16.97;100.00;100001.84;5032728;28;20052;-63
2024/03/17 10:00:14;;;;;;;6.07;2.53;;;;;;;17.76;100.00;100003.78;5027954;28;20526;-63
2024/03/17 10:02:47;;;;;;;3.33;1.20;;;;;;;18.41;100.00;100010.41;5020212;28;20064;-65
2024/03/17 10:05:24;;;;;;;22.85;13.00;;;;;;;19.17;100.00;100012.75;5024478;28;20041;-64
2024/03/17 10:07:51;;;;;;;3.03;1.27;;;;;;;19.71;100.00;100019.22;5020909;28;20136;-64
2024/03/17 10:10:20;;;;;;;4.38;1.42;;;;;;;20.02;98.10;100010.28;5000810;28;20060;-64
2024/03/17 10:12:52;;;;;;;5.20;1.80;;;;;;;20.24;98.30;100004.34;5001141;28;20057;-64
2024/03/17 10:15:20;;;;;;;7.18;2.85;;;;;;;20.73;94.73;100009.03;5006843;28;20052;-64
2024/03/17 10:17:46;;;;;;;6.97;1.60;;;;;;;20.89;92.25;100009.09;5019599;28;20607;-65
2024/03/17 10:20:20;;;;;;;4.25;1.10;;;;;;;20.87;91.37;100000.31;5022046;28;20702;-66
2024/03/17 10:23:03;;;;;;;2.20;1.25;;;;;;;20.89;92.25;99991.44;4997356;28;20049;-66
2024/03/17 10:25:32;;;;;;;4.50;1.10;;;;;;;21.20;87.39;99995.63;5019671;28;20048;-65
2024/03/17 10:28:00;;;;;;;5.25;1.20;;;;;;;21.50;84.69;99997.38;5019993;28;20045;-66
2024/03/17 10:30:30;;;;;;;8.77;0.82;;;;;;;21.68;82.62;99994.94;4996756;28;20049;-66
2024/03/17 10:32:58;;;;;;;2.35;0.98;;;;;;;21.93;82.03;99995.16;5016232;28;20049;-65
2024/03/17 10:35:26;;;;;;;5.18;1.42;;;;;;;22.07;79.75;99997.63;5021278;28;20596;-66
2024/03/17 10:38:04;;;;;;;7.60;3.08;;;;;;;22.14;82.50;99994.63;5025068;28;20055;-66
2024/03/17 10:40:32;;;;;;;3.42;0.70;;;;;;;22.17;76.18;99998.56;5018951;28;20045;-66
2024/03/17 10:43:00;;;;;;;1.65;0.50;;;;;;;22.15;75.12;99987.75;4999593;28;20044;-64
2024/03/17 10:45:30;;;;;;;2.67;0.50;;;;;;;22.10;73.46;99985.47;5010096;28;20049;-65
2024/03/17 10:48:00;;;;;;;2.30;0.40;;;;;;;22.01;72.62;99988.09;5012557;28;20419;-65
2024/03/17 10:50:30;;;;;;;1.70;0.50;;;;;;;22.16;71.65;99989.31;5023568;28;20422;-64
2024/03/17 10:53:02;;;;;;;2.45;0.50;;;;;;;22.29;68.95;99993.00;5014093;28;20045;-64
2024/03/17 10:55:34;;;;;;;2.58;0.65;;;;;;;21.57;69.52;99994.41;5015327;28;20426;-64
2024/03/17 10:58:04;;;;;;;;;;;;;;;20.37;73.90;99994.84;5022546;28;20423;-64
2024/03/17 11:00:31;;;;;;;2.03;0.43;;;;;;;19.31;73.63;99992.91;5022496;28;20374;-64
2024/03/17 11:02:58;;;;;;;0.65;0.40;;;;;;;18.24;74.79;99986.97;5040925;28;20419;-65
2024/03/17 11:05:33;;;;;;;1.58;0.93;;;;;;;17.38;75.81;99977.63;5037479;28;20677;-63
2024/03/17 11:08:01;;;;;;;4.88;1.02;;;;;;;16.59;76.48;99974.81;5025821;28;20084;-64
2024/03/17 11:10:29;;;;;;;2.30;0.50;;;;;;;16.09;77.60;99974.91;5041459;28;20499;-62
2024/03/17 11:12:56;;;;;;;2.97;0.73;;;;;;;15.71;78.22;99975.72;5037875;28;20055;-66
2024/03/17 11:15:38;;;;;;;1.65;0.60;;;;;;;15.43;79.01;99981.25;5009703;28;20064;-60
2024/03/17 11:18:07;;;;;;;8.43;1.10;;;;;;;15.11;79.29;99982.00;5021498;28;20089;-61
2024/03/17 11:20:37;;;;;;;3.65;1.02;;;;;;;14.92;79.64;99979.53;5015179;28;20478;-61
2024/03/17 11:23:03;;;;;;;2.78;0.60;;;;;;;14.73;79.86;99982.63;5024842;28;20067;-61
2024/03/17 11:25:30;;;;;;;2.30;0.50;;;;;;;14.56;80.23;99983.38;5039041;28;20052;-61